sensor_id;sensor_type;location;lat;lon;timestamp;temperature;humidity
3275;DHT22;1649;53.672;10.064;2023-09-18T00:00:21;18.10;99.90
3275;DHT22;1649;53.672;10.064;2023-09-18T00:02:48;18.10;99.90
3275;DHT22;1649;53.672;10.064;2023-09-18T00:05:13;18.10;99.90
3275;DHT22;1649;53.672;10.064;2023-09-18T00:07:42;18.00;99.90
3275;DHT22;1649;53.672;10.064;2023-09-18T00:10:09;18.10;99.90
3275;DHT22;1649;53.672;10.064;2023-09-18T00:12:35;18.10;99.90
3275;DHT22;1649;53.672;10.064;2023-09-18T00:15:00;18.10;99.90
3275;DHT22;1649;53.672;10.064;2023-09-18T00:17:26;18.10;99.90
3275;DHT22;1649;53.672;10.064;2023-09-18T00:19:52;18.00;99.90
3275;DHT22;1649;53.672;10.064;2023-09-18T00:22:17;18.10;99.90
3275;DHT22;1649;53.672;10.064;2023-09-18T00:24:43;18.10;99.90
3275;DHT22;1649;53.672;10.064;2023-09-18T00:27:08;18.10;99.90
3275;DHT22;1649;53.672;10.064;2023-09-18T00:29:36;18.00;99.90
3275;DHT22;1649;53.672;10.064;2023-09-18T00:32:02;18.00;99.90
3275;DHT22;1649;53.672;10.064;2023-09-18T00:34:29;18.00;99.90
3275;DHT22;1649;53.672;10.064;2023-09-18T00:36:54;17.90;99.90
3275;DHT22;1649;53.672;10.064;2023-09-18T00:39:20;17.90;99.90
3275;DHT22;1649;53.672;10.064;2023-09-18T00:41:45;17.90;99.90
3275;DHT22;1649;53.672;10.064;2023-09-18T00:44:14;17.90;99.90
3275;DHT22;1649;53.672;10.064;2023-09-18T00:46:40;17.90;99.90
3275;DHT22;1649;53.672;10.064;2023-09-18T00:49:06;17.90;99.90
3275;DHT22;1649;53.672;10.064;2023-09-18T00:51:32;17.90;99.90
3275;DHT22;1649;53.672;10.064;2023-09-18T00:53:58;17.80;99.90
3275;DHT22;1649;53.672;10.064;2023-09-18T00:56:24;17.80;99.90
3275;DHT22;1649;53.672;10.064;2023-09-18T00:58:50;17.80;99.90
3275;DHT22;1649;53.672;10.064;2023-09-18T01:01:18;17.70;99.90
3275;DHT22;1649;53.672;10.064;2023-09-18T01:03:49;17.70;99.90
3275;DHT22;1649;53.672;10.064;2023-09-18T01:06:15;17.70;99.90
3275;DHT22;1649;53.672;10.064;2023-09-18T01:08:41;17.80;99.90
3275;DHT22;1649;53.672;10.064;2023-09-18T01:11:26;17.80;99.90
3275;DHT22;1649;53.672;10.064;2023-09-18T01:14:16;17.70;99.90
3275;DHT22;1649;53.672;10.064;2023-09-18T01:16:53;17.70;99.90
3275;DHT22;1649;53.672;10.064;2023-09-18T01:19:37;17.70;99.90
3275;DHT22;1649;53.672;10.064;2023-09-18T01:22:04;17.70;99.90
3275;DHT22;1649;53.672;10.064;2023-09-18T01:24:31;17.60;99.90
3275;DHT22;1649;53.672;10.064;2023-09-18T01:26:57;17.60;99.90
3275;DHT22;1649;53.672;10.064;2023-09-18T01:29:22;17.60;99.90
3275;DHT22;1649;53.672;10.064;2023-09-18T01:31:48;17.60;99.90
3275;DHT22;1649;53.672;10.064;2023-09-18T01:34:15;17.60;99.90
3275;DHT22;1649;53.672;10.064;2023-09-18T01:36:43;17.50;99.90
3275;DHT22;1649;53.672;10.064;2023-09-18T01:39:11;17.50;99.90
3275;DHT22;1649;53.672;10.064;2023-09-18T01:41:38;17.40;99.90
3275;DHT22;1649;53.672;10.064;2023-09-18T01:44:03;17.40;99.90
3275;DHT22;1649;53.672;10.064;2023-09-18T01:46:30;17.40;99.90
3275;DHT22;1649;53.672;10.064;2023-09-18T01:48:58;17.40;99.90
3275;DHT22;1649;53.672;10.064;2023-09-18T01:51:24;17.40;99.90
3275;DHT22;1649;53.672;10.064;2023-09-18T01:53:50;17.40;99.90
3275;DHT22;1649;53.672;10.064;2023-09-18T01:56:15;17.30;99.90
3275;DHT22;1649;53.672;10.064;2023-09-18T01:58:40;17.30;99.90
3275;DHT22;1649;53.672;10.064;2023-09-18T02:01:06;17.30;99.90
3275;DHT22;1649;53.672;10.064;2023-09-18T02:03:32;17.20;99.90
3275;DHT22;1649;53.672;10.064;2023-09-18T02:05:58;17.20;99.90
3275;DHT22;1649;53.672;10.064;2023-09-18T02:08:23;17.20;99.90
3275;DHT22;1649;53.672;10.064;2023-09-18T02:10:49;17.20;99.90
3275;DHT22;1649;53.672;10.064;2023-09-18T02:13:14;17.10;99.90
3275;DHT22;1649;53.672;10.064;2023-09-18T02:15:40;17.10;99.90
3275;DHT22;1649;53.672;10.064;2023-09-18T02:18:05;17.10;99.90
3275;DHT22;1649;53.672;10.064;2023-09-18T02:20:31;17.10;99.90
3275;DHT22;1649;53.672;10.064;2023-09-18T02:22:56;17.20;99.90
3275;DHT22;1649;53.672;10.064;2023-09-18T02:25:22;17.10;99.90
3275;DHT22;1649;53.672;10.064;2023-09-18T02:27:47;17.10;99.90
3275;DHT22;1649;53.672;10.064;2023-09-18T02:30:13;17.20;99.90
3275;DHT22;1649;53.672;10.064;2023-09-18T02:32:38;17.10;99.90
3275;DHT22;1649;53.672;10.064;2023-09-18T02:35:05;17.20;99.90
3275;DHT22;1649;53.672;10.064;2023-09-18T02:37:32;17.20;99.90
3275;DHT22;1649;53.672;10.064;2023-09-18T02:39:58;17.20;99.90
3275;DHT22;1649;53.672;10.064;2023-09-18T02:42:23;17.20;99.90
3275;DHT22;1649;53.672;10.064;2023-09-18T02:44:49;17.20;99.90
3275;DHT22;1649;53.672;10.064;2023-09-18T02:47:14;17.20;99.90
3275;DHT22;1649;53.672;10.064;2023-09-18T02:49:39;17.10;99.90
3275;DHT22;1649;53.672;10.064;2023-09-18T02:52:05;17.10;99.90
3275;DHT22;1649;53.672;10.064;2023-09-18T02:54:31;17.10;99.90
3275;DHT22;1649;53.672;10.064;2023-09-18T02:56:56;17.10;99.90
3275;DHT22;1649;53.672;10.064;2023-09-18T02:59:22;17.10;99.90
3275;DHT22;1649;53.672;10.064;2023-09-18T03:01:47;17.10;99.90
3275;DHT22;1649;53.672;10.064;2023-09-18T03:04:13;17.00;99.90
3275;DHT22;1649;53.672;10.064;2023-09-18T03:06:38;17.00;99.90
3275;DHT22;1649;53.672;10.064;2023-09-18T03:09:05;17.00;99.90
3275;DHT22;1649;53.672;10.064;2023-09-18T03:11:30;17.00;99.90
3275;DHT22;1649;53.672;10.064;2023-09-18T03:13:56;17.00;99.90
3275;DHT22;1649;53.672;10.064;2023-09-18T03:16:21;17.00;99.90
3275;DHT22;1649;53.672;10.064;2023-09-18T03:18:47;17.00;99.90
3275;DHT22;1649;53.672;10.064;2023-09-18T03:21:12;17.10;99.90
3275;DHT22;1649;53.672;10.064;2023-09-18T03:23:38;17.20;99.90
3275;DHT22;1649;53.672;10.064;2023-09-18T03:26:03;17.20;99.90
3275;DHT22;1649;53.672;10.064;2023-09-18T03:28:29;17.10;99.90
3275;DHT22;1649;53.672;10.064;2023-09-18T03:30:55;17.10;99.90
3275;DHT22;1649;53.672;10.064;2023-09-18T03:33:20;17.10;99.90
3275;DHT22;1649;53.672;10.064;2023-09-18T03:35:50;17.10;99.90
3275;DHT22;1649;53.672;10.064;2023-09-18T03:38:15;17.10;99.90
3275;DHT22;1649;53.672;10.064;2023-09-18T03:40:41;17.10;99.90
3275;DHT22;1649;53.672;10.064;2023-09-18T03:43:07;17.10;99.90
3275;DHT22;1649;53.672;10.064;2023-09-18T03:45:33;17.10;99.90
3275;DHT22;1649;53.672;10.064;2023-09-18T03:47:58;17.00;99.90
3275;DHT22;1649;53.672;10.064;2023-09-18T03:50:24;16.90;99.90
3275;DHT22;1649;53.672;10.064;2023-09-18T03:52:49;16.90;99.90
3275;DHT22;1649;53.672;10.064;2023-09-18T03:55:15;16.90;99.90
3275;DHT22;1649;53.672;10.064;2023-09-18T03:57:42;16.90;99.90
3275;DHT22;1649;53.672;10.064;2023-09-18T04:00:07;16.90;99.90
3275;DHT22;1649;53.672;10.064;2023-09-18T04:02:33;16.80;99.90
3275;DHT22;1649;53.672;10.064;2023-09-18T04:05:00;16.80;99.90
3275;DHT22;1649;53.672;10.064;2023-09-18T04:07:26;16.80;99.90
3275;DHT22;1649;53.672;10.064;2023-09-18T04:09:51;16.70;99.90
3275;DHT22;1649;53.672;10.064;2023-09-18T04:12:17;16.70;99.90
3275;DHT22;1649;53.672;10.064;2023-09-18T04:14:42;16.80;99.90
3275;DHT22;1649;53.672;10.064;2023-09-18T04:17:08;16.90;99.90
3275;DHT22;1649;53.672;10.064;2023-09-18T04:19:33;16.80;99.90
3275;DHT22;1649;53.672;10.064;2023-09-18T04:21:59;16.80;99.90
3275;DHT22;1649;53.672;10.064;2023-09-18T04:24:25;16.80;99.90
3275;DHT22;1649;53.672;10.064;2023-09-18T04:26:51;16.80;99.90
3275;DHT22;1649;53.672;10.064;2023-09-18T04:29:17;16.80;99.90
3275;DHT22;1649;53.672;10.064;2023-09-18T04:31:43;16.90;99.90
3275;DHT22;1649;53.672;10.064;2023-09-18T04:34:08;16.80;99.90
3275;DHT22;1649;53.672;10.064;2023-09-18T04:36:34;16.90;99.90
3275;DHT22;1649;53.672;10.064;2023-09-18T04:38:59;16.80;99.90
3275;DHT22;1649;53.672;10.064;2023-09-18T04:41:25;16.80;99.90
3275;DHT22;1649;53.672;10.064;2023-09-18T04:43:50;16.80;99.90
3275;DHT22;1649;53.672;10.064;2023-09-18T04:46:16;16.80;99.90
3275;DHT22;1649;53.672;10.064;2023-09-18T04:48:42;16.80;99.90
3275;DHT22;1649;53.672;10.064;2023-09-18T04:51:07;16.70;99.90
3275;DHT22;1649;53.672;10.064;2023-09-18T04:53:32;16.70;99.90
3275;DHT22;1649;53.672;10.064;2023-09-18T04:55:58;16.70;99.90
3275;DHT22;1649;53.672;10.064;2023-09-18T04:58:24;16.70;99.90
3275;DHT22;1649;53.672;10.064;2023-09-18T05:00:59;16.70;99.90
3275;DHT22;1649;53.672;10.064;2023-09-18T05:03:26;16.70;99.90
3275;DHT22;1649;53.672;10.064;2023-09-18T05:05:54;16.70;99.90
3275;DHT22;1649;53.672;10.064;2023-09-18T05:08:20;16.60;99.90
3275;DHT22;1649;53.672;10.064;2023-09-18T05:10:46;16.60;99.90
3275;DHT22;1649;53.672;10.064;2023-09-18T05:13:12;16.60;99.90
3275;DHT22;1649;53.672;10.064;2023-09-18T05:15:38;16.60;99.90
3275;DHT22;1649;53.672;10.064;2023-09-18T05:18:04;16.70;99.90
3275;DHT22;1649;53.672;10.064;2023-09-18T05:20:30;16.70;99.90
3275;DHT22;1649;53.672;10.064;2023-09-18T05:22:57;16.80;99.90
3275;DHT22;1649;53.672;10.064;2023-09-18T05:25:24;16.80;99.90
3275;DHT22;1649;53.672;10.064;2023-09-18T05:27:51;16.80;99.90
3275;DHT22;1649;53.672;10.064;2023-09-18T05:30:25;16.80;99.90
3275;DHT22;1649;53.672;10.064;2023-09-18T05:32:53;16.80;99.90
3275;DHT22;1649;53.672;10.064;2023-09-18T05:35:19;16.90;99.90
3275;DHT22;1649;53.672;10.064;2023-09-18T05:37:44;16.90;99.90
3275;DHT22;1649;53.672;10.064;2023-09-18T05:40:11;16.90;99.90
3275;DHT22;1649;53.672;10.064;2023-09-18T05:42:38;17.00;99.90
3275;DHT22;1649;53.672;10.064;2023-09-18T05:45:05;17.10;99.90
3275;DHT22;1649;53.672;10.064;2023-09-18T05:47:33;17.10;99.90
3275;DHT22;1649;53.672;10.064;2023-09-18T05:50:07;17.10;99.90
3275;DHT22;1649;53.672;10.064;2023-09-18T05:52:33;17.10;99.90
3275;DHT22;1649;53.672;10.064;2023-09-18T05:55:00;17.20;99.90
3275;DHT22;1649;53.672;10.064;2023-09-18T05:57:25;17.30;99.90
3275;DHT22;1649;53.672;10.064;2023-09-18T05:59:53;17.30;99.90
3275;DHT22;1649;53.672;10.064;2023-09-18T06:02:18;17.40;99.90
3275;DHT22;1649;53.672;10.064;2023-09-18T06:04:46;17.40;99.90
3275;DHT22;1649;53.672;10.064;2023-09-18T06:07:11;17.50;99.90
3275;DHT22;1649;53.672;10.064;2023-09-18T06:09:38;17.60;99.90
3275;DHT22;1649;53.672;10.064;2023-09-18T06:12:04;17.60;99.90
3275;DHT22;1649;53.672;10.064;2023-09-18T06:14:31;17.80;99.90
3275;DHT22;1649;53.672;10.064;2023-09-18T06:16:57;18.30;99.90
3275;DHT22;1649;53.672;10.064;2023-09-18T06:19:22;18.90;99.90
3275;DHT22;1649;53.672;10.064;2023-09-18T06:21:48;19.70;99.90
3275;DHT22;1649;53.672;10.064;2023-09-18T06:24:14;20.20;99.90
3275;DHT22;1649;53.672;10.064;2023-09-18T06:26:39;20.50;99.90
3275;DHT22;1649;53.672;10.064;2023-09-18T06:29:05;20.60;99.90
3275;DHT22;1649;53.672;10.064;2023-09-18T06:31:31;20.60;99.90
3275;DHT22;1649;53.672;10.064;2023-09-18T06:33:57;20.60;99.90
3275;DHT22;1649;53.672;10.064;2023-09-18T06:36:22;20.60;99.90
3275;DHT22;1649;53.672;10.064;2023-09-18T06:38:48;20.30;99.90
3275;DHT22;1649;53.672;10.064;2023-09-18T06:41:13;20.10;99.90
3275;DHT22;1649;53.672;10.064;2023-09-18T06:43:39;19.90;99.90
3275;DHT22;1649;53.672;10.064;2023-09-18T06:46:07;19.70;99.90
3275;DHT22;1649;53.672;10.064;2023-09-18T06:48:33;19.60;99.90
3275;DHT22;1649;53.672;10.064;2023-09-18T06:50:59;19.40;99.90
3275;DHT22;1649;53.672;10.064;2023-09-18T06:53:28;19.40;99.90
3275;DHT22;1649;53.672;10.064;2023-09-18T06:55:54;19.30;99.90
3275;DHT22;1649;53.672;10.064;2023-09-18T06:58:20;19.30;99.90
3275;DHT22;1649;53.672;10.064;2023-09-18T07:00:46;19.20;99.90
3275;DHT22;1649;53.672;10.064;2023-09-18T07:03:12;19.20;99.90
3275;DHT22;1649;53.672;10.064;2023-09-18T07:05:37;19.20;99.90
3275;DHT22;1649;53.672;10.064;2023-09-18T07:08:03;19.20;99.90
3275;DHT22;1649;53.672;10.064;2023-09-18T07:10:31;19.20;99.90
3275;DHT22;1649;53.672;10.064;2023-09-18T07:12:56;19.30;99.90
3275;DHT22;1649;53.672;10.064;2023-09-18T07:15:22;19.40;99.90
3275;DHT22;1649;53.672;10.064;2023-09-18T07:17:47;19.40;99.90
3275;DHT22;1649;53.672;10.064;2023-09-18T07:20:13;19.60;99.90
3275;DHT22;1649;53.672;10.064;2023-09-18T07:22:40;19.60;99.90
3275;DHT22;1649;53.672;10.064;2023-09-18T07:25:06;19.70;99.90
3275;DHT22;1649;53.672;10.064;2023-09-18T07:27:32;19.80;99.90
3275;DHT22;1649;53.672;10.064;2023-09-18T07:29:58;20.00;99.90
3275;DHT22;1649;53.672;10.064;2023-09-18T07:32:24;20.20;99.90
3275;DHT22;1649;53.672;10.064;2023-09-18T07:34:52;20.30;99.90
3275;DHT22;1649;53.672;10.064;2023-09-18T07:37:17;20.50;99.90
3275;DHT22;1649;53.672;10.064;2023-09-18T07:39:46;20.70;99.90
3275;DHT22;1649;53.672;10.064;2023-09-18T07:42:11;20.80;99.90
3275;DHT22;1649;53.672;10.064;2023-09-18T07:44:37;20.90;99.90
3275;DHT22;1649;53.672;10.064;2023-09-18T07:47:03;21.00;99.90
3275;DHT22;1649;53.672;10.064;2023-09-18T07:49:28;21.20;99.90
3275;DHT22;1649;53.672;10.064;2023-09-18T07:51:54;21.30;99.90
3275;DHT22;1649;53.672;10.064;2023-09-18T07:54:19;21.20;99.90
3275;DHT22;1649;53.672;10.064;2023-09-18T07:56:45;21.10;99.90
3275;DHT22;1649;53.672;10.064;2023-09-18T07:59:10;21.10;99.90
3275;DHT22;1649;53.672;10.064;2023-09-18T08:01:36;21.10;99.90
3275;DHT22;1649;53.672;10.064;2023-09-18T08:04:02;21.10;99.90
3275;DHT22;1649;53.672;10.064;2023-09-18T08:06:28;21.20;99.90
3275;DHT22;1649;53.672;10.064;2023-09-18T08:08:54;21.30;99.90
3275;DHT22;1649;53.672;10.064;2023-09-18T08:11:19;21.40;99.90
3275;DHT22;1649;53.672;10.064;2023-09-18T08:13:45;21.40;99.90
3275;DHT22;1649;53.672;10.064;2023-09-18T08:16:10;21.50;99.90
3275;DHT22;1649;53.672;10.064;2023-09-18T08:18:36;21.40;99.90
3275;DHT22;1649;53.672;10.064;2023-09-18T08:21:04;21.50;99.90
3275;DHT22;1649;53.672;10.064;2023-09-18T08:23:30;21.40;99.90
3275;DHT22;1649;53.672;10.064;2023-09-18T08:25:55;21.50;99.90
3275;DHT22;1649;53.672;10.064;2023-09-18T08:28:21;21.40;99.90
3275;DHT22;1649;53.672;10.064;2023-09-18T08:30:47;21.50;99.90
3275;DHT22;1649;53.672;10.064;2023-09-18T08:33:13;21.60;99.90
3275;DHT22;1649;53.672;10.064;2023-09-18T08:35:39;21.60;99.90
3275;DHT22;1649;53.672;10.064;2023-09-18T08:38:05;21.70;99.90
3275;DHT22;1649;53.672;10.064;2023-09-18T08:40:31;21.70;99.90
3275;DHT22;1649;53.672;10.064;2023-09-18T08:42:58;21.60;99.90
3275;DHT22;1649;53.672;10.064;2023-09-18T08:45:44;21.60;99.90
3275;DHT22;1649;53.672;10.064;2023-09-18T08:48:12;21.60;99.90
3275;DHT22;1649;53.672;10.064;2023-09-18T08:50:38;21.70;99.90
3275;DHT22;1649;53.672;10.064;2023-09-18T08:53:05;21.70;99.90
3275;DHT22;1649;53.672;10.064;2023-09-18T08:55:31;21.80;99.90
3275;DHT22;1649;53.672;10.064;2023-09-18T08:57:58;21.80;99.90
3275;DHT22;1649;53.672;10.064;2023-09-18T09:00:25;21.80;99.90
3275;DHT22;1649;53.672;10.064;2023-09-18T09:02:51;21.70;99.90
3275;DHT22;1649;53.672;10.064;2023-09-18T09:05:17;21.70;99.90
3275;DHT22;1649;53.672;10.064;2023-09-18T09:07:43;21.60;99.90
3275;DHT22;1649;53.672;10.064;2023-09-18T09:10:09;21.60;99.90
3275;DHT22;1649;53.672;10.064;2023-09-18T09:12:55;21.70;99.90
3275;DHT22;1649;53.672;10.064;2023-09-18T09:15:31;21.70;99.90
3275;DHT22;1649;53.672;10.064;2023-09-18T09:18:08;21.80;99.90
3275;DHT22;1649;53.672;10.064;2023-09-18T09:20:34;21.70;99.90
3275;DHT22;1649;53.672;10.064;2023-09-18T09:23:02;21.60;99.90
3275;DHT22;1649;53.672;10.064;2023-09-18T09:25:29;21.50;99.90
3275;DHT22;1649;53.672;10.064;2023-09-18T09:28:07;21.60;99.90
3275;DHT22;1649;53.672;10.064;2023-09-18T09:30:36;21.70;99.90
3275;DHT22;1649;53.672;10.064;2023-09-18T09:33:03;21.80;99.90
3275;DHT22;1649;53.672;10.064;2023-09-18T09:35:31;21.80;99.90
3275;DHT22;1649;53.672;10.064;2023-09-18T09:38:17;22.10;99.90
3275;DHT22;1649;53.672;10.064;2023-09-18T09:40:45;22.20;99.90
3275;DHT22;1649;53.672;10.064;2023-09-18T09:43:12;22.60;99.90
3275;DHT22;1649;53.672;10.064;2023-09-18T09:45:40;22.90;99.90
3275;DHT22;1649;53.672;10.064;2023-09-18T09:48:07;22.90;99.90
3275;DHT22;1649;53.672;10.064;2023-09-18T09:50:33;22.70;99.90
3275;DHT22;1649;53.672;10.064;2023-09-18T09:52:59;22.70;99.90
3275;DHT22;1649;53.672;10.064;2023-09-18T09:58:02;22.50;99.90
3275;DHT22;1649;53.672;10.064;2023-09-18T10:00:45;22.60;99.90
3275;DHT22;1649;53.672;10.064;2023-09-18T10:03:14;22.70;99.90
3275;DHT22;1649;53.672;10.064;2023-09-18T10:05:45;22.70;99.90
3275;DHT22;1649;53.672;10.064;2023-09-18T10:08:14;22.60;99.90
3275;DHT22;1649;53.672;10.064;2023-09-18T10:10:52;22.60;99.90
3275;DHT22;1649;53.672;10.064;2023-09-18T10:13:41;22.60;99.90
3275;DHT22;1649;53.672;10.064;2023-09-18T10:16:12;22.70;99.90
3275;DHT22;1649;53.672;10.064;2023-09-18T10:18:50;22.80;99.90
3275;DHT22;1649;53.672;10.064;2023-09-18T10:24:06;23.00;99.90
3275;DHT22;1649;53.672;10.064;2023-09-18T10:26:35;23.00;99.90
3275;DHT22;1649;53.672;10.064;2023-09-18T10:29:04;22.90;99.90
3275;DHT22;1649;53.672;10.064;2023-09-18T10:31:33;22.90;99.90
3275;DHT22;1649;53.672;10.064;2023-09-18T10:34:01;22.90;99.90
3275;DHT22;1649;53.672;10.064;2023-09-18T10:36:29;23.00;99.90
3275;DHT22;1649;53.672;10.064;2023-09-18T10:38:56;23.20;99.90
3275;DHT22;1649;53.672;10.064;2023-09-18T10:41:26;23.30;99.90
3275;DHT22;1649;53.672;10.064;2023-09-18T10:43:56;23.30;99.90
3275;DHT22;1649;53.672;10.064;2023-09-18T10:46:25;23.30;99.90
3275;DHT22;1649;53.672;10.064;2023-09-18T10:48:51;23.40;99.90
3275;DHT22;1649;53.672;10.064;2023-09-18T10:51:21;23.40;99.90
3275;DHT22;1649;53.672;10.064;2023-09-18T10:53:47;23.50;99.90
3275;DHT22;1649;53.672;10.064;2023-09-18T10:56:17;23.60;99.90
3275;DHT22;1649;53.672;10.064;2023-09-18T10:58:43;23.60;99.90
3275;DHT22;1649;53.672;10.064;2023-09-18T11:01:15;23.70;99.90
3275;DHT22;1649;53.672;10.064;2023-09-18T11:03:54;23.80;99.90
3275;DHT22;1649;53.672;10.064;2023-09-18T11:11:53;24.40;99.90
3275;DHT22;1649;53.672;10.064;2023-09-18T11:14:22;24.30;99.90
3275;DHT22;1649;53.672;10.064;2023-09-18T11:16:49;24.40;99.90
3275;DHT22;1649;53.672;10.064;2023-09-18T11:19:17;24.80;99.90
3275;DHT22;1649;53.672;10.064;2023-09-18T11:21:45;25.00;99.90
3275;DHT22;1649;53.672;10.064;2023-09-18T11:24:21;25.00;99.90
3275;DHT22;1649;53.672;10.064;2023-09-18T11:26:48;24.80;99.90
3275;DHT22;1649;53.672;10.064;2023-09-18T11:29:16;24.80;99.90
3275;DHT22;1649;53.672;10.064;2023-09-18T11:31:51;24.60;99.90
3275;DHT22;1649;53.672;10.064;2023-09-18T11:34:29;24.60;99.90
3275;DHT22;1649;53.672;10.064;2023-09-18T11:36:57;24.60;99.90
3275;DHT22;1649;53.672;10.064;2023-09-18T11:42:16;24.70;99.90
3275;DHT22;1649;53.672;10.064;2023-09-18T11:44:42;24.30;99.90
3275;DHT22;1649;53.672;10.064;2023-09-18T11:47:13;24.10;99.90
3275;DHT22;1649;53.672;10.064;2023-09-18T11:49:52;23.80;99.90
3275;DHT22;1649;53.672;10.064;2023-09-18T11:52:27;23.70;99.90
3275;DHT22;1649;53.672;10.064;2023-09-18T11:54:55;23.80;99.90
3275;DHT22;1649;53.672;10.064;2023-09-18T11:57:21;23.70;99.90
3275;DHT22;1649;53.672;10.064;2023-09-18T11:59:46;23.80;99.90
3275;DHT22;1649;53.672;10.064;2023-09-18T12:02:32;23.80;99.90
3275;DHT22;1649;53.672;10.064;2023-09-18T12:05:13;24.00;99.90
3275;DHT22;1649;53.672;10.064;2023-09-18T12:07:39;24.10;99.90
3275;DHT22;1649;53.672;10.064;2023-09-18T12:10:09;24.20;99.90
3275;DHT22;1649;53.672;10.064;2023-09-18T12:12:35;24.00;99.90
3275;DHT22;1649;53.672;10.064;2023-09-18T12:15:01;24.10;99.90
3275;DHT22;1649;53.672;10.064;2023-09-18T12:17:27;24.10;99.90
3275;DHT22;1649;53.672;10.064;2023-09-18T12:19:56;24.10;99.90
3275;DHT22;1649;53.672;10.064;2023-09-18T12:22:28;24.30;99.90
3275;DHT22;1649;53.672;10.064;2023-09-18T12:25:11;24.30;99.90
3275;DHT22;1649;53.672;10.064;2023-09-18T12:27:37;24.30;99.90
3275;DHT22;1649;53.672;10.064;2023-09-18T12:30:04;24.10;99.90
3275;DHT22;1649;53.672;10.064;2023-09-18T12:32:30;24.10;99.90
3275;DHT22;1649;53.672;10.064;2023-09-18T12:34:58;24.20;99.90
3275;DHT22;1649;53.672;10.064;2023-09-18T12:37:23;24.30;99.90
3275;DHT22;1649;53.672;10.064;2023-09-18T12:39:49;24.30;99.90
3275;DHT22;1649;53.672;10.064;2023-09-18T12:42:18;24.40;99.90
3275;DHT22;1649;53.672;10.064;2023-09-18T12:44:47;24.30;99.90
3275;DHT22;1649;53.672;10.064;2023-09-18T12:47:13;24.30;99.90
3275;DHT22;1649;53.672;10.064;2023-09-18T12:49:38;24.30;99.90
3275;DHT22;1649;53.672;10.064;2023-09-18T12:52:05;24.30;99.90
3275;DHT22;1649;53.672;10.064;2023-09-18T12:54:51;24.40;99.90
3275;DHT22;1649;53.672;10.064;2023-09-18T12:57:21;24.30;99.90
3275;DHT22;1649;53.672;10.064;2023-09-18T12:59:47;24.40;99.90
3275;DHT22;1649;53.672;10.064;2023-09-18T13:02:17;24.40;99.90
3275;DHT22;1649;53.672;10.064;2023-09-18T13:04:54;24.60;99.90
3275;DHT22;1649;53.672;10.064;2023-09-18T13:07:20;24.60;99.90
3275;DHT22;1649;53.672;10.064;2023-09-18T13:10:05;24.40;99.90
3275;DHT22;1649;53.672;10.064;2023-09-18T13:12:51;24.10;99.90
3275;DHT22;1649;53.672;10.064;2023-09-18T13:15:25;24.10;99.90
3275;DHT22;1649;53.672;10.064;2023-09-18T13:17:52;24.10;99.90
3275;DHT22;1649;53.672;10.064;2023-09-18T13:20:21;24.10;99.90
3275;DHT22;1649;53.672;10.064;2023-09-18T13:22:51;24.20;99.90
3275;DHT22;1649;53.672;10.064;2023-09-18T13:25:21;24.20;99.90
3275;DHT22;1649;53.672;10.064;2023-09-18T13:27:47;24.30;99.90
3275;DHT22;1649;53.672;10.064;2023-09-18T13:30:13;24.30;99.90
3275;DHT22;1649;53.672;10.064;2023-09-18T13:32:43;24.40;99.90
3275;DHT22;1649;53.672;10.064;2023-09-18T13:35:10;24.40;99.90
3275;DHT22;1649;53.672;10.064;2023-09-18T13:37:37;24.30;99.90
3275;DHT22;1649;53.672;10.064;2023-09-18T13:40:04;24.20;99.90
3275;DHT22;1649;53.672;10.064;2023-09-18T13:42:32;24.10;99.90
3275;DHT22;1649;53.672;10.064;2023-09-18T13:44:58;23.90;99.90
3275;DHT22;1649;53.672;10.064;2023-09-18T13:47:26;23.70;99.90
3275;DHT22;1649;53.672;10.064;2023-09-18T13:49:53;23.60;99.90
3275;DHT22;1649;53.672;10.064;2023-09-18T13:52:18;23.50;99.90
3275;DHT22;1649;53.672;10.064;2023-09-18T13:54:45;23.70;99.90
3275;DHT22;1649;53.672;10.064;2023-09-18T13:57:17;23.70;99.90
3275;DHT22;1649;53.672;10.064;2023-09-18T13:59:44;23.80;99.90
3275;DHT22;1649;53.672;10.064;2023-09-18T14:02:10;23.70;99.90
3275;DHT22;1649;53.672;10.064;2023-09-18T14:04:36;23.70;99.90
3275;DHT22;1649;53.672;10.064;2023-09-18T14:07:01;23.70;99.90
3275;DHT22;1649;53.672;10.064;2023-09-18T14:09:28;23.70;99.90
3275;DHT22;1649;53.672;10.064;2023-09-18T14:11:54;23.60;99.90
3275;DHT22;1649;53.672;10.064;2023-09-18T14:14:21;23.60;99.90
3275;DHT22;1649;53.672;10.064;2023-09-18T14:16:47;23.60;99.90
3275;DHT22;1649;53.672;10.064;2023-09-18T14:19:12;23.60;99.90
3275;DHT22;1649;53.672;10.064;2023-09-18T14:21:38;23.50;99.90
3275;DHT22;1649;53.672;10.064;2023-09-18T14:24:05;23.60;99.90
3275;DHT22;1649;53.672;10.064;2023-09-18T14:26:31;23.50;99.90
3275;DHT22;1649;53.672;10.064;2023-09-18T14:28:56;23.50;99.90
3275;DHT22;1649;53.672;10.064;2023-09-18T14:31:22;23.40;99.90
3275;DHT22;1649;53.672;10.064;2023-09-18T14:33:47;23.50;99.90
3275;DHT22;1649;53.672;10.064;2023-09-18T14:36:13;23.50;99.90
3275;DHT22;1649;53.672;10.064;2023-09-18T14:38:39;23.60;99.90
3275;DHT22;1649;53.672;10.064;2023-09-18T14:41:06;23.60;99.90
3275;DHT22;1649;53.672;10.064;2023-09-18T14:43:32;23.70;99.90
3275;DHT22;1649;53.672;10.064;2023-09-18T14:45:57;23.80;99.90
3275;DHT22;1649;53.672;10.064;2023-09-18T14:48:24;23.90;99.90
3275;DHT22;1649;53.672;10.064;2023-09-18T14:50:55;24.00;99.90
3275;DHT22;1649;53.672;10.064;2023-09-18T14:53:21;24.00;99.90
3275;DHT22;1649;53.672;10.064;2023-09-18T14:55:47;23.80;99.90
3275;DHT22;1649;53.672;10.064;2023-09-18T14:58:14;23.70;99.90
3275;DHT22;1649;53.672;10.064;2023-09-18T15:00:39;23.50;99.90
3275;DHT22;1649;53.672;10.064;2023-09-18T15:03:05;23.40;99.90
3275;DHT22;1649;53.672;10.064;2023-09-18T15:05:31;23.40;99.90
3275;DHT22;1649;53.672;10.064;2023-09-18T15:07:56;23.30;99.90
3275;DHT22;1649;53.672;10.064;2023-09-18T15:10:21;23.20;99.90
3275;DHT22;1649;53.672;10.064;2023-09-18T15:12:47;23.20;99.90
3275;DHT22;1649;53.672;10.064;2023-09-18T15:15:13;23.10;99.90
3275;DHT22;1649;53.672;10.064;2023-09-18T15:17:38;23.00;99.90
3275;DHT22;1649;53.672;10.064;2023-09-18T15:20:05;23.10;99.90
3275;DHT22;1649;53.672;10.064;2023-09-18T15:22:31;23.10;99.90
3275;DHT22;1649;53.672;10.064;2023-09-18T15:24:57;23.20;99.90
3275;DHT22;1649;53.672;10.064;2023-09-18T15:27:22;23.20;99.90
3275;DHT22;1649;53.672;10.064;2023-09-18T15:29:48;23.30;99.90
3275;DHT22;1649;53.672;10.064;2023-09-18T15:32:13;23.40;99.90
3275;DHT22;1649;53.672;10.064;2023-09-18T15:34:39;23.50;99.90
3275;DHT22;1649;53.672;10.064;2023-09-18T15:37:04;23.60;99.90
3275;DHT22;1649;53.672;10.064;2023-09-18T15:39:31;23.60;99.90
3275;DHT22;1649;53.672;10.064;2023-09-18T15:41:58;23.50;99.90
3275;DHT22;1649;53.672;10.064;2023-09-18T15:44:24;23.60;99.90
3275;DHT22;1649;53.672;10.064;2023-09-18T15:46:49;23.50;99.90
3275;DHT22;1649;53.672;10.064;2023-09-18T15:49:15;23.50;99.90
3275;DHT22;1649;53.672;10.064;2023-09-18T15:51:41;23.50;99.90
3275;DHT22;1649;53.672;10.064;2023-09-18T15:54:07;23.30;99.90
3275;DHT22;1649;53.672;10.064;2023-09-18T15:56:33;23.40;99.90
3275;DHT22;1649;53.672;10.064;2023-09-18T15:58:59;23.40;99.90